Wetterdaten: Woche 15.10.18 - 21.10.18 (KW42)
Datum Zeit Temp. Aussen Temp. o. S. +5cm Feuchte Auss Luftdruck Regen Sonnenschein Regendauer Solar Windben Empfang
15.10.2018 00:00 17,4 C 16,5 C 15,7 C 73 % 1007,8 hPa 0,0 l/m 0,00 h 0,00 h 0 W/m 9,2 km/h (2 Bft) 99,20 %
15.10.2018 01:00 16,7 C 15,7 C 15,0 C 76 % 1008,0 hPa 0,0 l/m 0,00 h 0,00 h 0 W/m 7,6 km/h (2 Bft) 96,59 %
15.10.2018 02:00 16,6 C 16,1 C 15,5 C 77 % 1008,1 hPa 0,0 l/m 0,00 h 0,00 h 0 W/m 10,0 km/h (2 Bft) 95,98 %
15.10.2018 03:00 16,8 C 16,2 C 15,3 C 75 % 1008,0 hPa 0,0 l/m 0,00 h 0,00 h 0 W/m 8,7 km/h (2 Bft) 99,20 %
15.10.2018 04:00 16,7 C 16,3 C 15,3 C 76 % 1008,1 hPa 0,0 l/m 0,00 h 0,00 h 0 W/m 9,7 km/h (2 Bft) 97,16 %
15.10.2018 05:00 17,0 C 16,7 C 15,6 C 74 % 1008,3 hPa 0,0 l/m 0,00 h 0,00 h 0 W/m 9,8 km/h (2 Bft) 97,65 %
15.10.2018 06:00 16,9 C 16,1 C 15,2 C 72 % 1008,6 hPa 0,0 l/m 0,00 h 0,00 h 0 W/m 8,0 km/h (2 Bft) 98,18 %
15.10.2018 07:00 16,4 C 15,1 C 14,5 C 73 % 1008,9 hPa 0,0 l/m 0,00 h 0,00 h 4 W/m 7,2 km/h (2 Bft) 95,94 %
15.10.2018 08:00 15,4 C 14,6 C 13,9 C 77 % 1009,4 hPa 0,0 l/m 0,00 h 0,00 h 19 W/m 8,3 km/h (2 Bft) 99,01 %
15.10.2018 09:00 15,7 C 16,2 C 14,7 C 78 % 1010,0 hPa 0,0 l/m 0,00 h 0,00 h 56 W/m 11,9 km/h (2 Bft) 96,71 %
15.10.2018 10:00 18,7 C 25,1 C 16,6 C 70 % 1010,5 hPa 0,0 l/m 0,07 h 0,00 h 136 W/m 13,6 km/h (3 Bft) 96,77 %
15.10.2018 11:00 22,3 C 27,2 C 18,2 C 59 % 1010,7 hPa 0,0 l/m 0,23 h 0,00 h 160 W/m 13,1 km/h (3 Bft) 99,03 %
15.10.2018 12:00 23,1 C 24,9 C 19,2 C 57 % 1010,7 hPa 0,0 l/m 0,00 h 0,00 h 138 W/m 12,9 km/h (3 Bft) 96,22 %
15.10.2018 13:00 23,7 C 23,8 C 20,4 C 56 % 1010,5 hPa 0,0 l/m 1,00 h 0,00 h 443 W/m 12,8 km/h (3 Bft) 97,72 %
15.10.2018 14:00 24,9 C 24,9 C 21,8 C 52 % 1010,3 hPa 0,0 l/m 0,47 h 0,00 h 224 W/m 10,8 km/h (2 Bft) 98,67 %
15.10.2018 15:00 24,6 C 19,5 C 16,2 C 57 % 1010,2 hPa 0,0 l/m 1,00 h 0,00 h 367 W/m 8,3 km/h (2 Bft) 96,34 %
15.10.2018 16:00 23,7 C 18,0 C 15,5 C 58 % 1010,5 hPa 0,0 l/m 1,00 h 0,00 h 275 W/m 7,9 km/h (2 Bft) 98,00 %
15.10.2018 17:00 22,9 C 17,8 C 15,5 C 58 % 1010,8 hPa 0,0 l/m 0,03 h 0,00 h 42 W/m 6,2 km/h (2 Bft) 97,52 %
15.10.2018 18:00 22,2 C 20,9 C 15,6 C 57 % 1011,3 hPa 0,0 l/m 0,00 h 0,00 h 14 W/m 2,7 km/h (1 Bft) 96,78 %
15.10.2018 19:00 20,9 C 19,0 C 15,9 C 59 % 1012,0 hPa 0,0 l/m 0,00 h 0,00 h 0 W/m 2,2 km/h (1 Bft) 98,06 %
15.10.2018 20:00 18,4 C 15,7 C 14,3 C 66 % 1012,2 hPa 0,0 l/m 0,00 h 0,00 h 0 W/m 0,0 km/h (0 Bft) 97,87 %
15.10.2018 21:00 15,9 C 13,8 C 13,0 C 74 % 1012,5 hPa 0,0 l/m 0,00 h 0,00 h 0 W/m 0,0 km/h (0 Bft) 97,83 %
15.10.2018 22:00 14,2 C 12,6 C 12,1 C 78 % 1013,0 hPa 0,0 l/m 0,00 h 0,00 h 0 W/m 0,0 km/h (0 Bft) 97,28 %
15.10.2018 23:00 13,2 C 12,1 C 11,6 C 82 % 1013,3 hPa 0,0 l/m 0,00 h 0,00 h 0 W/m 0,5 km/h (0 Bft) 95,87 %
16.10.2018 00:00 12,4 C 11,2 C 10,9 C 83 % 1013,4 hPa 0,0 l/m 0,00 h 0,00 h 0 W/m 0,0 km/h (0 Bft) 98,96 %
16.10.2018 01:00 11,5 C 10,3 C 10,1 C 85 % 1013,9 hPa 0,0 l/m 0,00 h 0,00 h 0 W/m 0,0 km/h (0 Bft) 98,48 %
16.10.2018 02:00 10,9 C 10,0 C 9,8 C 87 % 1014,4 hPa 0,0 l/m 0,00 h 0,00 h 0 W/m 0,0 km/h (0 Bft) 96,26 %
16.10.2018 03:00 10,4 C 9,8 C 9,5 C 90 % 1014,7 hPa 0,0 l/m 0,00 h 0,00 h 0 W/m 0,5 km/h (0 Bft) 96,40 %
16.10.2018 04:00 10,5 C 10,4 C 9,8 C 92 % 1014,8 hPa 0,0 l/m 0,00 h 0,00 h 0 W/m 0,1 km/h (0 Bft) 99,47 %
16.10.2018 05:00 10,3 C 9,3 C 9,2 C 92 % 1015,0 hPa 0,0 l/m 0,00 h 0,00 h 0 W/m 0,0 km/h (0 Bft) 96,63 %
16.10.2018 06:00 9,9 C 9,5 C 9,2 C 92 % 1015,3 hPa 0,0 l/m 0,00 h 0,00 h 0 W/m 0,9 km/h (0 Bft) 98,50 %
16.10.2018 07:00 10,2 C 10,0 C 9,4 C 94 % 1015,6 hPa 0,0 l/m 0,00 h 0,00 h 0 W/m 1,6 km/h (1 Bft) 96,08 %
16.10.2018 08:00 10,3 C 10,0 C 9,8 C 94 % 1016,1 hPa 0,0 l/m 0,00 h 0,00 h 14 W/m 0,7 km/h (0 Bft) 98,06 %
16.10.2018 09:00 11,0 C 12,5 C 10,9 C 95 % 1016,5 hPa 0,0 l/m 0,00 h 0,00 h 78 W/m 4,4 km/h (1 Bft) 98,44 %
16.10.2018 10:00 14,2 C 21,7 C 13,0 C 91 % 1016,7 hPa 0,0 l/m 0,10 h 0,00 h 113 W/m 7,5 km/h (2 Bft) 96,04 %
16.10.2018 11:00 19,5 C 26,1 C 15,5 C 71 % 1016,7 hPa 0,0 l/m 0,30 h 0,00 h 215 W/m 9,6 km/h (2 Bft) 99,92 %
16.10.2018 12:00 21,8 C 25,2 C 17,5 C 63 % 1016,6 hPa 0,0 l/m 0,27 h 0,00 h 241 W/m 6,1 km/h (2 Bft) 97,41 %
16.10.2018 13:00 23,1 C 23,4 C 18,7 C 59 % 1016,4 hPa 0,0 l/m 1,00 h 0,00 h 454 W/m 7,0 km/h (2 Bft) 98,27 %
16.10.2018 14:00 24,0 C 24,0 C 19,1 C 55 % 1016,2 hPa 0,0 l/m 0,37 h 0,00 h 245 W/m 6,1 km/h (2 Bft) 98,21 %
16.10.2018 15:00 24,3 C 24,4 C 19,6 C 52 % 1016,1 hPa 0,0 l/m 0,97 h 0,00 h 379 W/m 7,7 km/h (2 Bft) 96,76 %
16.10.2018 16:00 24,5 C 24,0 C 19,2 C 51 % 1016,0 hPa 0,0 l/m 0,57 h 0,00 h 163 W/m 6,9 km/h (2 Bft) 98,43 %
16.10.2018 17:00 23,5 C 21,2 C 17,7 C 55 % 1015,9 hPa 0,0 l/m 0,00 h 0,00 h 43 W/m 1,6 km/h (1 Bft) 97,11 %
16.10.2018 18:00 20,4 C 17,6 C 15,5 C 64 % 1016,0 hPa 0,0 l/m 0,00 h 0,00 h 8 W/m 0,0 km/h (0 Bft) 98,28 %
16.10.2018 19:00 17,7 C 15,7 C 14,1 C 72 % 1016,3 hPa 0,0 l/m 0,00 h 0,00 h 0 W/m 0,0 km/h (0 Bft) 96,65 %
16.10.2018 20:00 16,3 C 14,7 C 13,7 C 76 % 1016,5 hPa 0,0 l/m 0,00 h 0,00 h 0 W/m 0,0 km/h (0 Bft) 97,58 %
16.10.2018 21:00 15,3 C 14,0 C 13,3 C 79 % 1016,7 hPa 0,0 l/m 0,00 h 0,00 h 0 W/m 0,2 km/h (0 Bft) 98,34 %
16.10.2018 22:00 14,9 C 14,2 C 13,2 C 82 % 1016,9 hPa 0,0 l/m 0,00 h 0,00 h 0 W/m 1,0 km/h (0 Bft) 98,12 %
16.10.2018 23:00 14,3 C 13,5 C 12,5 C 83 % 1016,7 hPa 0,0 l/m 0,00 h 0,00 h 0 W/m 2,2 km/h (1 Bft) 96,34 %
17.10.2018 00:00 14,8 C 14,7 C 13,3 C 84 % 1016,5 hPa 0,0 l/m 0,00 h 0,00 h 0 W/m 6,3 km/h (2 Bft) 96,99 %
17.10.2018 01:00 15,0 C 14,4 C 13,3 C 83 % 1016,3 hPa 0,0 l/m 0,00 h 0,00 h 0 W/m 7,1 km/h (2 Bft) 99,73 %
17.10.2018 02:00 14,8 C 13,9 C 13,3 C 84 % 1016,1 hPa 0,0 l/m 0,00 h 0,00 h 0 W/m 8,6 km/h (2 Bft) 96,30 %
17.10.2018 03:00 14,4 C 13,7 C 13,1 C 86 % 1016,0 hPa 0,0 l/m 0,00 h 0,00 h 0 W/m 7,9 km/h (2 Bft) 96,66 %
17.10.2018 04:00 14,1 C 13,3 C 12,8 C 87 % 1015,8 hPa 0,0 l/m 0,00 h 0,00 h 0 W/m 8,3 km/h (2 Bft) 99,15 %
17.10.2018 05:00 13,7 C 12,6 C 12,3 C 87 % 1016,0 hPa 0,0 l/m 0,00 h 0,00 h 0 W/m 1,5 km/h (1 Bft) 96,23 %
17.10.2018 06:00 12,8 C 11,3 C 11,2 C 88 % 1016,3 hPa 0,0 l/m 0,00 h 0,00 h 0 W/m 0,2 km/h (0 Bft) 97,30 %
17.10.2018 07:00 12,2 C 11,5 C 11,1 C 90 % 1016,5 hPa 0,0 l/m 0,00 h 0,00 h 3 W/m 1,0 km/h (0 Bft) 97,65 %
17.10.2018 08:00 12,1 C 11,7 C 11,5 C 92 % 1016,6 hPa 0,0 l/m 0,00 h 0,00 h 19 W/m 4,1 km/h (1 Bft) 97,00 %
17.10.2018 09:00 12,2 C 12,6 C 11,8 C 93 % 1016,7 hPa 0,0 l/m 0,00 h 0,00 h 49 W/m 4,7 km/h (1 Bft) 99,78 %
17.10.2018 10:00 13,7 C 19,2 C 13,0 C 93 % 1017,2 hPa 0,0 l/m 0,03 h 0,00 h 106 W/m 3,3 km/h (1 Bft) 96,08 %
17.10.2018 11:00 17,2 C 24,3 C 14,6 C 79 % 1017,3 hPa 0,0 l/m 0,17 h 0,00 h 150 W/m 3,8 km/h (1 Bft) 97,35 %
17.10.2018 12:00 19,7 C 23,5 C 15,9 C 69 % 1017,2 hPa 0,0 l/m 0,13 h 0,00 h 145 W/m 4,5 km/h (1 Bft) 95,31 %
17.10.2018 13:00 19,6 C 19,7 C 16,9 C 70 % 1016,8 hPa 0,0 l/m 1,00 h 0,00 h 411 W/m 6,4 km/h (2 Bft) 98,45 %
17.10.2018 14:00 20,4 C 21,2 C 17,9 C 67 % 1016,4 hPa 0,0 l/m 0,40 h 0,00 h 238 W/m 5,3 km/h (1 Bft) 99,36 %
17.10.2018 15:00 21,4 C 21,6 C 18,6 C 64 % 1016,1 hPa 0,0 l/m 1,00 h 0,00 h 364 W/m 7,1 km/h (2 Bft) 95,97 %
17.10.2018 16:00 21,8 C 21,8 C 18,9 C 64 % 1016,0 hPa 0,0 l/m 1,00 h 0,00 h 235 W/m 8,7 km/h (2 Bft) 98,20 %
17.10.2018 17:00 21,1 C 20,0 C 18,4 C 66 % 1016,2 hPa 0,0 l/m 0,00 h 0,00 h 64 W/m 9,7 km/h (2 Bft) 98,24 %
17.10.2018 18:00 19,9 C 17,9 C 16,7 C 71 % 1016,5 hPa 0,0 l/m 0,10 h 0,00 h 15 W/m 3,8 km/h (1 Bft) 97,04 %
17.10.2018 19:00 18,2 C 16,5 C 16,0 C 78 % 1017,0 hPa 0,0 l/m 0,00 h 0,00 h 0 W/m 6,3 km/h (2 Bft) 97,70 %
17.10.2018 20:00 16,9 C 15,0 C 14,7 C 83 % 1017,6 hPa 0,0 l/m 0,00 h 0,00 h 0 W/m 2,4 km/h (1 Bft) 96,61 %
17.10.2018 21:00 15,7 C 14,1 C 13,9 C 85 % 1018,0 hPa 0,0 l/m 0,00 h 0,00 h 0 W/m 0,8 km/h (0 Bft) 98,60 %
17.10.2018 22:00 14,7 C 13,2 C 13,2 C 87 % 1018,3 hPa 0,0 l/m 0,00 h 0,00 h 0 W/m 0,1 km/h (0 Bft) 98,78 %
17.10.2018 23:00 14,1 C 12,8 C 12,8 C 90 % 1018,6 hPa 0,0 l/m 0,00 h 0,00 h 0 W/m 1,6 km/h (1 Bft) 95,38 %
18.10.2018 00:00 13,6 C 12,3 C 12,5 C 92 % 1018,9 hPa 0,0 l/m 0,00 h 0,00 h 0 W/m 1,8 km/h (1 Bft) 98,77 %
18.10.2018 01:00 13,0 C 11,8 C 12,2 C 93 % 1019,1 hPa 0,0 l/m 0,00 h 0,00 h 0 W/m 4,7 km/h (1 Bft) 97,83 %
18.10.2018 02:00 12,6 C 11,7 C 11,7 C 94 % 1019,1 hPa 0,0 l/m 0,00 h 0,00 h 0 W/m 4,0 km/h (1 Bft) 97,87 %
18.10.2018 03:00 12,4 C 11,8 C 11,9 C 95 % 1019,4 hPa 0,0 l/m 0,00 h 0,00 h 0 W/m 5,7 km/h (1 Bft) 96,37 %
18.10.2018 04:00 13,0 C 12,7 C 12,7 C 96 % 1019,4 hPa 0,0 l/m 0,00 h 0,00 h 0 W/m 4,9 km/h (1 Bft) 97,97 %
18.10.2018 05:00 13,3 C 13,0 C 12,8 C 96 % 1019,6 hPa 0,0 l/m 0,00 h 0,00 h 0 W/m 5,0 km/h (1 Bft) 98,01 %
18.10.2018 06:00 13,7 C 13,3 C 12,8 C 96 % 1019,9 hPa 0,0 l/m 0,00 h 0,00 h 0 W/m 5,0 km/h (1 Bft) 97,79 %
18.10.2018 07:00 13,7 C 13,3 C 12,8 C 96 % 1020,2 hPa 0,0 l/m 0,00 h 0,00 h 0 W/m 7,6 km/h (2 Bft) 96,64 %
18.10.2018 08:00 13,6 C 13,1 C 12,8 C 94 % 1020,6 hPa 0,0 l/m 0,00 h 0,00 h 15 W/m 4,1 km/h (1 Bft) 98,16 %
18.10.2018 09:00 13,6 C 13,3 C 12,8 C 93 % 1021,1 hPa 0,0 l/m 0,00 h 0,00 h 49 W/m 6,7 km/h (2 Bft) 98,41 %
18.10.2018 10:00 13,8 C 13,7 C 13,0 C 92 % 1021,5 hPa 0,0 l/m 0,00 h 0,00 h 98 W/m 11,2 km/h (2 Bft) 95,71 %
18.10.2018 11:00 14,5 C 16,5 C 13,8 C 89 % 1021,5 hPa 0,0 l/m 0,10 h 0,00 h 168 W/m 10,1 km/h (2 Bft) 98,48 %
18.10.2018 12:00 17,0 C 20,8 C 15,4 C 80 % 1021,6 hPa 0,0 l/m 0,30 h 0,00 h 221 W/m 13,9 km/h (3 Bft) 99,35 %
18.10.2018 13:00 17,4 C 17,4 C 15,8 C 76 % 1021,6 hPa 0,0 l/m 0,57 h 0,00 h 284 W/m 14,5 km/h (3 Bft) 94,45 %
18.10.2018 14:00 17,5 C 17,6 C 16,1 C 76 % 1021,4 hPa 0,0 l/m 0,53 h 0,00 h 238 W/m 14,5 km/h (3 Bft) 98,68 %
18.10.2018 15:00 17,3 C 16,8 C 15,8 C 78 % 1021,5 hPa 0,0 l/m 0,33 h 0,00 h 185 W/m 14,3 km/h (3 Bft) 97,94 %
18.10.2018 16:00 16,6 C 15,9 C 15,1 C 79 % 1021,3 hPa 0,0 l/m 0,00 h 0,00 h 100 W/m 13,3 km/h (3 Bft) 96,23 %
18.10.2018 17:00 15,8 C 14,9 C 14,4 C 83 % 1021,3 hPa 0,0 l/m 0,00 h 0,00 h 38 W/m 11,9 km/h (2 Bft) 97,96 %
18.10.2018 18:00 15,1 C 14,2 C 13,8 C 86 % 1021,5 hPa 0,0 l/m 0,00 h 0,00 h 6 W/m 12,8 km/h (3 Bft) 97,46 %
18.10.2018 19:00 14,5 C 13,4 C 13,3 C 89 % 1021,8 hPa 0,0 l/m 0,00 h 0,00 h 0 W/m 8,0 km/h (2 Bft) 97,57 %
18.10.2018 20:00 14,1 C 13,3 C 13,3 C 90 % 1022,1 hPa 0,0 l/m 0,00 h 0,00 h 0 W/m 10,1 km/h (2 Bft) 97,90 %
18.10.2018 21:00 13,9 C 13,3 C 12,9 C 89 % 1022,6 hPa 0,0 l/m 0,00 h 0,00 h 0 W/m 10,8 km/h (2 Bft) 95,68 %
18.10.2018 22:00 13,3 C 12,0 C 12,2 C 90 % 1022,9 hPa 0,0 l/m 0,00 h 0,00 h 0 W/m 10,5 km/h (2 Bft) 99,01 %
18.10.2018 23:00 12,8 C 12,2 C 12,2 C 91 % 1022,7 hPa 0,0 l/m 0,00 h 0,00 h 0 W/m 11,0 km/h (2 Bft) 99,43 %
19.10.2018 00:00 12,8 C 12,2 C 12,2 C 89 % 1022,5 hPa 0,0 l/m 0,00 h 0,00 h 0 W/m 9,9 km/h (2 Bft) 93,49 %
19.10.2018 01:00 12,8 C 12,2 C 12,2 C 89 % 1022,2 hPa 0,0 l/m 0,00 h 0,00 h 0 W/m 10,5 km/h (2 Bft) 99,29 %
19.10.2018 02:00 12,7 C 12,2 C 11,9 C 88 % 1021,9 hPa 0,0 l/m 0,00 h 0,00 h 0 W/m 10,0 km/h (2 Bft) 98,82 %
19.10.2018 03:00 12,6 C 11,9 C 11,7 C 88 % 1021,7 hPa 0,0 l/m 0,00 h 0,00 h 0 W/m 7,9 km/h (2 Bft) 95,60 %
19.10.2018 04:00 12,2 C 11,4 C 11,3 C 88 % 1021,8 hPa 0,0 l/m 0,00 h 0,00 h 0 W/m 6,8 km/h (2 Bft) 98,02 %
19.10.2018 05:00 11,9 C 11,1 C 11,1 C 89 % 1021,9 hPa 0,0 l/m 0,00 h 0,00 h 0 W/m 7,0 km/h (2 Bft) 97,63 %
19.10.2018 06:00 11,6 C 10,7 C 11,1 C 90 % 1022,0 hPa 0,0 l/m 0,00 h 0,00 h 0 W/m 4,8 km/h (1 Bft) 97,08 %
19.10.2018 07:00 11,3 C 10,6 C 10,6 C 90 % 1022,2 hPa 0,0 l/m 0,00 h 0,00 h 1 W/m 5,6 km/h (1 Bft) 98,36 %
19.10.2018 08:00 11,2 C 10,6 C 10,6 C 91 % 1022,5 hPa 0,0 l/m 0,00 h 0,00 h 18 W/m 6,9 km/h (2 Bft) 95,42 %
19.10.2018 09:00 11,1 C 11,0 C 10,7 C 92 % 1022,7 hPa 0,0 l/m 0,00 h 0,00 h 69 W/m 6,7 km/h (2 Bft) 98,05 %
19.10.2018 10:00 11,6 C 12,2 C 11,3 C 92 % 1023,1 hPa 0,0 l/m 0,00 h 0,00 h 121 W/m 8,3 km/h (2 Bft) 99,27 %
19.10.2018 11:00 12,7 C 14,4 C 12,1 C 90 % 1023,0 hPa 0,0 l/m 0,10 h 0,00 h 186 W/m 8,4 km/h (2 Bft) 94,47 %
19.10.2018 12:00 14,0 C 16,6 C 12,9 C 85 % 1022,7 hPa 0,0 l/m 0,27 h 0,00 h 209 W/m 8,2 km/h (2 Bft) 99,01 %
19.10.2018 13:00 14,9 C 15,6 C 13,4 C 81 % 1022,4 hPa 0,0 l/m 0,67 h 0,00 h 288 W/m 7,7 km/h (2 Bft) 98,36 %
19.10.2018 14:00 15,5 C 16,0 C 14,0 C 78 % 1022,1 hPa 0,0 l/m 0,03 h 0,00 h 158 W/m 5,8 km/h (2 Bft) 94,53 %
19.10.2018 15:00 16,2 C 16,7 C 14,9 C 74 % 1021,7 hPa 0,0 l/m 0,77 h 0,00 h 270 W/m 9,2 km/h (2 Bft) 99,20 %
19.10.2018 16:00 16,3 C 16,1 C 14,5 C 73 % 1021,4 hPa 0,0 l/m 0,43 h 0,00 h 130 W/m 7,1 km/h (2 Bft) 96,93 %
19.10.2018 17:00 15,9 C 14,9 C 14,2 C 74 % 1021,6 hPa 0,0 l/m 0,00 h 0,00 h 25 W/m 8,1 km/h (2 Bft) 96,56 %
19.10.2018 18:00 15,1 C 13,9 C 13,5 C 76 % 1022,0 hPa 0,0 l/m 0,00 h 0,00 h 9 W/m 5,8 km/h (2 Bft) 98,57 %
19.10.2018 19:00 14,2 C 12,8 C 12,6 C 78 % 1022,6 hPa 0,0 l/m 0,00 h 0,00 h 0 W/m 3,9 km/h (1 Bft) 96,04 %
19.10.2018 20:00 13,3 C 11,8 C 11,6 C 81 % 1023,3 hPa 0,0 l/m 0,00 h 0,00 h 0 W/m 1,5 km/h (1 Bft) 99,28 %
19.10.2018 21:00 11,8 C 9,7 C 9,8 C 83 % 1023,6 hPa 0,0 l/m 0,00 h 0,00 h 0 W/m 0,5 km/h (0 Bft) 97,68 %
19.10.2018 22:00 10,3 C 8,6 C 8,7 C 86 % 1023,9 hPa 0,0 l/m 0,00 h 0,00 h 0 W/m 0,6 km/h (0 Bft) 95,07 %
19.10.2018 23:00 9,1 C 7,4 C 7,9 C 88 % 1024,4 hPa 0,0 l/m 0,00 h 0,00 h 0 W/m 0,6 km/h (0 Bft) 99,28 %
20.10.2018 00:00 8,1 C 6,5 C 7,0 C 89 % 1024,7 hPa 0,0 l/m 0,00 h 0,00 h 0 W/m 0,6 km/h (0 Bft) 97,81 %
20.10.2018 01:00 7,2 C 6,0 C 6,4 C 90 % 1025,0 hPa 0,0 l/m 0,00 h 0,00 h 0 W/m 0,3 km/h (0 Bft) 97,98 %
20.10.2018 02:00 6,5 C 5,3 C 6,0 C 91 % 1025,0 hPa 0,0 l/m 0,00 h 0,00 h 0 W/m 0,7 km/h (0 Bft) 96,30 %
20.10.2018 03:00 5,9 C 4,8 C 5,3 C 92 % 1025,7 hPa 0,0 l/m 0,00 h 0,00 h 0 W/m 1,7 km/h (1 Bft) 97,87 %
20.10.2018 04:00 5,4 C 4,4 C 5,0 C 93 % 1026,1 hPa 0,0 l/m 0,00 h 0,00 h 0 W/m 0,2 km/h (0 Bft) 96,99 %
20.10.2018 05:00 5,0 C 4,0 C 4,4 C 93 % 1026,0 hPa 0,0 l/m 0,00 h 0,00 h 0 W/m 0,0 km/h (0 Bft) 98,88 %
20.10.2018 06:00 4,5 C 3,4 C 4,0 C 94 % 1026,8 hPa 0,0 l/m 0,00 h 0,05 h 0 W/m 1,0 km/h (0 Bft) 98,25 %
20.10.2018 07:00 4,1 C 3,3 C 3,9 C 94 % 1027,3 hPa 0,0 l/m 0,00 h 0,03 h 6 W/m 0,5 km/h (0 Bft) 96,04 %
20.10.2018 08:00 4,2 C 3,7 C 4,2 C 95 % 1027,9 hPa 0,0 l/m 0,33 h 0,00 h 28 W/m 0,8 km/h (0 Bft) 96,00 %
20.10.2018 09:00 4,8 C 5,1 C 5,2 C 96 % 1028,6 hPa 0,0 l/m 0,00 h 0,00 h 58 W/m 0,9 km/h (0 Bft) 99,16 %
20.10.2018 10:00 6,5 C 11,2 C 7,0 C 97 % 1029,3 hPa 0,0 l/m 0,07 h 0,00 h 125 W/m 0,9 km/h (0 Bft) 97,58 %
20.10.2018 11:00 10,0 C 16,9 C 9,3 C 98 % 1029,5 hPa 0,0 l/m 0,03 h 0,00 h 121 W/m 2,3 km/h (1 Bft) 98,32 %
20.10.2018 12:00 13,1 C 17,8 C 10,6 C 84 % 1029,2 hPa 0,0 l/m 0,30 h 0,00 h 183 W/m 6,1 km/h (2 Bft) 97,25 %
20.10.2018 13:00 13,9 C 14,5 C 12,0 C 73 % 1029,2 hPa 0,0 l/m 1,00 h 0,00 h 411 W/m 8,2 km/h (2 Bft) 96,63 %
20.10.2018 14:00 14,6 C 15,2 C 12,7 C 69 % 1028,8 hPa 0,0 l/m 0,43 h 0,00 h 234 W/m 8,4 km/h (2 Bft) 98,74 %
20.10.2018 15:00 14,8 C 14,8 C 13,0 C 68 % 1028,5 hPa 0,0 l/m 0,97 h 0,00 h 240 W/m 7,8 km/h (2 Bft) 96,59 %
20.10.2018 16:00 14,6 C 14,3 C 12,8 C 67 % 1028,3 hPa 0,0 l/m 0,60 h 0,00 h 152 W/m 8,7 km/h (2 Bft) 97,28 %
20.10.2018 17:00 14,2 C 13,6 C 12,7 C 68 % 1028,4 hPa 0,0 l/m 0,97 h 0,00 h 76 W/m 9,4 km/h (2 Bft) 97,08 %
20.10.2018 18:00 13,3 C 11,5 C 11,0 C 71 % 1028,6 hPa 0,0 l/m 0,33 h 0,00 h 21 W/m 2,3 km/h (1 Bft) 98,87 %
20.10.2018 19:00 11,2 C 8,9 C 8,7 C 76 % 1028,7 hPa 0,0 l/m 0,00 h 0,00 h 0 W/m 0,0 km/h (0 Bft) 98,36 %
20.10.2018 20:00 9,3 C 7,5 C 7,4 C 82 % 1028,6 hPa 0,0 l/m 0,00 h 0,00 h 0 W/m 0,1 km/h (0 Bft) 94,17 %
20.10.2018 21:00 7,8 C 6,3 C 6,3 C 84 % 1028,8 hPa 0,0 l/m 0,00 h 0,00 h 0 W/m 0,0 km/h (0 Bft) 98,06 %
20.10.2018 22:00 6,8 C 5,6 C 5,7 C 86 % 1029,2 hPa 0,0 l/m 0,00 h 0,00 h 0 W/m 0,0 km/h (0 Bft) 99,01 %
20.10.2018 23:00 6,1 C 5,1 C 5,2 C 88 % 1028,7 hPa 0,0 l/m 0,00 h 0,00 h 0 W/m 0,0 km/h (0 Bft) 97,41 %
21.10.2018 00:00 5,4 C 4,1 C 4,5 C 89 % 1028,7 hPa 0,0 l/m 0,00 h 0,00 h 0 W/m 0,0 km/h (0 Bft) 98,49 %
21.10.2018 01:00 4,7 C 4,0 C 4,0 C 90 % 1028,5 hPa 0,0 l/m 0,00 h 0,00 h 0 W/m 0,0 km/h (0 Bft) 96,00 %
21.10.2018 02:00 4,2 C 3,3 C 3,6 C 91 % 1028,2 hPa 0,0 l/m 0,00 h 0,00 h 0 W/m 0,0 km/h (0 Bft) 97,41 %
21.10.2018 03:00 3,9 C 3,4 C 3,5 C 92 % 1028,2 hPa 0,0 l/m 0,00 h 0,00 h 0 W/m 0,1 km/h (0 Bft) 96,69 %
21.10.2018 04:00 3,7 C 2,8 C 3,1 C 93 % 1028,1 hPa 0,0 l/m 0,00 h 0,00 h 0 W/m 0,0 km/h (0 Bft) 99,43 %
21.10.2018 05:00 3,6 C 3,8 C 3,7 C 94 % 1027,7 hPa 0,0 l/m 0,00 h 0,00 h 0 W/m 1,6 km/h (1 Bft) 96,91 %
21.10.2018 06:00 4,5 C 4,3 C 4,3 C 95 % 1027,5 hPa 0,0 l/m 0,00 h 0,00 h 0 W/m 3,7 km/h (1 Bft) 96,69 %
21.10.2018 07:00 4,6 C 3,9 C 4,1 C 96 % 1027,4 hPa 0,0 l/m 0,00 h 0,00 h 0 W/m 1,7 km/h (1 Bft) 97,69 %
21.10.2018 08:00 4,4 C 4,0 C 4,1 C 96 % 1027,5 hPa 0,0 l/m 0,00 h 0,00 h 14 W/m 3,0 km/h (1 Bft) 97,56 %
21.10.2018 09:00 5,0 C 5,4 C 5,3 C 97 % 1027,7 hPa 0,0 l/m 0,00 h 0,00 h 33 W/m 7,7 km/h (2 Bft) 97,82 %
21.10.2018 10:00 7,0 C 11,5 C 7,1 C 97 % 1027,8 hPa 0,0 l/m 0,00 h 0,00 h 70 W/m 10,6 km/h (2 Bft) 96,79 %
21.10.2018 11:00 10,2 C 19,0 C 8,5 C 95 % 1027,8 hPa 0,0 l/m 0,00 h 0,00 h 94 W/m 8,3 km/h (2 Bft) 98,59 %
21.10.2018 12:00 13,5 C 17,4 C 10,0 C 76 % 1027,5 hPa 0,0 l/m 0,27 h 0,00 h 169 W/m 9,9 km/h (2 Bft) 97,75 %
21.10.2018 13:00 14,2 C 14,5 C 11,6 C 71 % 1026,7 hPa 0,0 l/m 1,00 h 0,00 h 419 W/m 10,1 km/h (2 Bft) 98,70 %
21.10.2018 14:00 15,2 C 15,5 C 12,5 C 65 % 1026,0 hPa 0,0 l/m 0,43 h 0,00 h 188 W/m 13,4 km/h (3 Bft) 97,29 %
21.10.2018 15:00 15,9 C 15,9 C 12,8 C 61 % 1025,5 hPa 0,0 l/m 1,00 h 0,00 h 353 W/m 10,6 km/h (2 Bft) 96,95 %
21.10.2018 16:00 16,1 C 16,1 C 12,5 C 60 % 1024,9 hPa 0,0 l/m 0,80 h 0,00 h 220 W/m 10,3 km/h (2 Bft) 97,22 %
21.10.2018 17:00 15,6 C 14,5 C 12,0 C 61 % 1024,4 hPa 0,0 l/m 0,00 h 0,00 h 41 W/m 6,2 km/h (2 Bft) 98,25 %
21.10.2018 18:00 14,2 C 12,0 C 10,3 C 67 % 1024,2 hPa 0,0 l/m 0,10 h 0,00 h 12 W/m 0,7 km/h (0 Bft) 95,20 %
21.10.2018 19:00 11,5 C 9,3 C 8,5 C 75 % 1024,4 hPa 0,0 l/m 0,00 h 0,00 h 0 W/m 0,0 km/h (0 Bft) 99,31 %
21.10.2018 20:00 9,7 C 8,1 C 7,5 C 80 % 1024,5 hPa 0,0 l/m 0,00 h 0,00 h 0 W/m 0,0 km/h (0 Bft) 97,86 %
21.10.2018 21:00 8,5 C 7,1 C 6,8 C 83 % 1024,5 hPa 0,0 l/m 0,00 h 0,00 h 0 W/m 0,0 km/h (0 Bft) 97,28 %
21.10.2018 22:00 7,6 C 6,4 C 6,1 C 85 % 1024,5 hPa 0,0 l/m 0,00 h 0,00 h 0 W/m 0,0 km/h (0 Bft) 96,22 %
21.10.2018 23:00 6,9 C 6,0 C 5,7 C 87 % 1024,7 hPa 0,0 l/m 0,00 h 0,00 h 0 W/m 0,0 km/h (0 Bft) 98,09 %
Min-Datum _ 21.10.18 21.10.18 21.10.18 16.10.18 15.10.18 - - - - 15.10.18 19.10.18
_ Min-Zeit 04:58 04:00 04:14 15:10 00:00 - - - - 18:10 11:28
Minimum _ 3,4 C 2,8 C 2,8 C 50 % 1007,7 hPa - - - - 0,0 km/h (0 Bft) 87,23 %
Max-Datum _ 15.10.18 15.10.18 15.10.18 20.10.18 20.10.18 15.10.18 15.10.18 20.10.18 18.10.18 18.10.18 15.10.18
_ Max-Zeit 14:50 11:26 14:14 10:50 11:42 00:00 13:08 06:07 13:20 12:44 00:00
Maximum _ 25,3 C 29,4 C 22,2 C 98 % 1029,7 hPa 0,0 l/m 0,07 h 0,05 h 556 W/m 29,0 km/h
NO (5 Bft)
100,00 %
Durchschnitt _ 13,7 C 13,5 C 12,0 C 81 % 1020,1 hPa #0,0 l/m #23:56 h #5 min. 146 W/m 5,3 km/h (1 Bft) 97,53 %
© 2018 W. Hausmann